Time;durP1;ratioP1;P1;durP2;ratioP2;P2;SDS_P1;SDS_P2;PMS_P1;PMS_P2;Temp;Humidity;BMP_temperature;BMP_pressure;BME280_temperature;BME280_humidity;BME280_pressure;Samples;Min_cycle;Max_cycle;Signal;HPM_P1;HPM_P2
2024/01/20 00:02:02;;;;;;;22.67;7.72;;;;;;;;;;4946493;28;20039;-72
2024/01/20 00:04:27;;;;;;;31.27;9.50;;;;;;;;;;4948222;28;20035;-72
2024/01/20 00:06:52;;;;;;;30.10;9.15;;;;;;;;;;4958218;28;20042;-73
2024/01/20 00:09:18;;;;;;;12.95;4.85;;;;;;;;;;4973265;28;20425;-71
2024/01/20 00:11:43;;;;;;;26.73;7.22;;;;;;;;;;4970522;28;20039;-71
2024/01/20 00:14:08;;;;;;;22.83;8.20;;;;;;;;;;4984463;28;20042;-72
2024/01/20 00:16:34;;;;;;;36.58;7.68;;;;;;;;;;4984263;28;20050;-72
2024/01/20 00:18:59;;;;;;;22.83;7.78;;;;;;;;;;4986294;28;20045;-71
2024/01/20 00:21:24;;;;;;;18.67;8.13;;;;;;;;;;4986191;28;20034;-73
2024/01/20 00:23:50;;;;;;;31.45;9.05;;;;;;;;;;4980227;28;20026;-72
2024/01/20 00:26:16;;;;;;;24.30;8.25;;;;;;;;;;4965036;28;20050;-72
2024/01/20 00:28:41;;;;;;;21.10;7.35;;;;;;;;;;4966569;28;20035;-72
2024/01/20 00:31:06;;;;;;;33.78;9.48;;;;;;;;;;4964628;28;20039;-72
2024/01/20 00:33:32;;;;;;;22.73;8.50;;;;;;;;;;4964935;28;20619;-72
2024/01/20 00:35:57;;;;;;;28.08;8.73;;;;;;;;;;4966818;28;20804;-71
2024/01/20 00:38:25;;;;;;;24.98;8.32;;;;;;;;;;4971948;28;20404;-72
2024/01/20 00:40:50;;;;;;;26.25;8.70;;;;;;;;;;4969460;28;20051;-72
2024/01/20 00:43:16;;;;;;;27.80;9.80;;;;;;;;;;4966066;28;20039;-72
2024/01/20 00:45:41;;;;;;;22.98;8.65;;;;;;;;;;4965013;28;20417;-72
2024/01/20 00:48:06;;;;;;;26.02;9.88;;;;;;;;;;4965635;28;20026;-72
2024/01/20 00:50:32;;;;;;;32.55;9.82;;;;;;;;;;4965345;28;20030;-72
2024/01/20 00:52:57;;;;;;;26.83;9.15;;;;;;;;;;4966190;28;20039;-72
2024/01/20 00:55:22;;;;;;;37.80;8.77;;;;;;;;;;4962978;28;20039;-72
2024/01/20 00:57:48;;;;;;;27.50;9.07;;;;;;;;;;4965215;28;20046;-72
2024/01/20 01:00:13;;;;;;;32.65;10.65;;;;;;;;;;4964668;28;20038;-72
2024/01/20 01:02:40;;;;;;;29.80;9.25;;;;;;;;;;4964871;28;20511;-72
2024/01/20 01:05:07;;;;;;;25.60;7.80;;;;;;;;;;4963895;28;20169;-72
2024/01/20 01:07:33;;;;;;;26.00;8.50;;;;;;;;;;4976561;28;20118;-72
2024/01/20 01:09:59;;;;;;;24.10;9.05;;;;;;;;;;4962871;28;20424;-72
2024/01/20 01:12:24;;;;;;;24.50;8.50;;;;;;;;;;4967909;28;20042;-72
2024/01/20 01:14:50;;;;;;;20.15;6.43;;;;;;;;;;4961825;28;20042;-72
2024/01/20 01:17:16;;;;;;;26.58;9.75;;;;;;;;;;4961379;28;20070;-72
2024/01/20 01:19:42;;;;;;;19.17;8.05;;;;;;;;;;4960413;28;20488;-72
2024/01/20 01:22:08;;;;;;;23.08;8.10;;;;;;;;;;4961178;28;20604;-72
2024/01/20 01:24:33;;;;;;;21.10;8.20;;;;;;;;;;4952390;28;20569;-72
2024/01/20 01:26:58;;;;;;;24.17;7.53;;;;;;;;;;4947203;28;20024;-72
2024/01/20 01:29:24;;;;;;;26.55;8.40;;;;;;;;;;4961247;28;20018;-72
2024/01/20 01:31:49;;;;;;;26.60;9.50;;;;;;;;;;4956735;28;20039;-71
2024/01/20 01:34:15;;;;;;;27.67;9.60;;;;;;;;;;4976591;28;20126;-72
2024/01/20 01:36:40;;;;;;;19.85;8.13;;;;;;;;;;4984578;28;20097;-72
2024/01/20 01:39:05;;;;;;;24.85;9.00;;;;;;;;;;4969036;28;20080;-72
2024/01/20 01:41:31;;;;;;;24.92;7.97;;;;;;;;;;4961579;28;20404;-72
2024/01/20 01:43:57;;;;;;;26.63;9.65;;;;;;;;;;4964691;28;20130;-72
2024/01/20 01:46:23;;;;;;;30.75;10.43;;;;;;;;;;4965199;28;20042;-72
2024/01/20 01:48:48;;;;;;;26.75;9.30;;;;;;;;;;4965473;28;20134;-72
2024/01/20 01:51:14;;;;;;;23.38;10.25;;;;;;;;;;4965904;28;20129;-72
2024/01/20 01:53:40;;;;;;;16.42;7.55;;;;;;;;;;4963613;28;20070;-72
2024/01/20 01:56:07;;;;;;;22.90;8.00;;;;;;;;;;4963804;28;20089;-72
2024/01/20 01:58:32;;;;;;;25.52;8.95;;;;;;;;;;4963911;28;20077;-72
2024/01/20 02:00:59;;;;;;;28.05;9.05;;;;;;;;;;4965444;28;20688;-71
2024/01/20 02:03:24;;;;;;;27.13;9.82;;;;;;;;;;4965280;28;20089;-71
2024/01/20 02:05:50;;;;;;;26.70;9.23;;;;;;;;;;4965631;28;20245;-72
2024/01/20 02:08:15;;;;;;;24.45;8.63;;;;;;;;;;4978736;28;20141;-72
2024/01/20 02:10:42;;;;;;;31.58;9.90;;;;;;;;;;4978359;28;20038;-72
2024/01/20 02:13:09;;;;;;;33.25;11.98;;;;;;;;;;4982962;28;20045;-72
2024/01/20 02:15:36;;;;;;;26.65;8.65;;;;;;;;;;4984615;28;20475;-72
2024/01/20 02:18:01;;;;;;;23.38;8.10;;;;;;;;;;4983880;28;20030;-71
2024/01/20 02:20:26;;;;;;;25.05;7.90;;;;;;;;;;4983879;28;20026;-72
2024/01/20 02:22:52;;;;;;;19.23;7.45;;;;;;;;;;4980302;28;20066;-71
2024/01/20 02:25:17;;;;;;;16.42;7.57;;;;;;;;;;4952641;28;20055;-71
2024/01/20 02:27:43;;;;;;;15.63;5.75;;;;;;;;;;4944492;28;20065;-71
2024/01/20 02:30:08;;;;;;;19.75;7.72;;;;;;;;;;4946195;28;20673;-72
2024/01/20 02:32:34;;;;;;;23.27;10.30;;;;;;;;;;4948859;28;20041;-72
2024/01/20 02:34:59;;;;;;;15.55;6.35;;;;;;;;;;4953175;28;20049;-72
2024/01/20 02:37:24;;;;;;;25.27;8.48;;;;;;;;;;4967304;28;20034;-72
2024/01/20 02:39:50;;;;;;;27.85;9.75;;;;;;;;;;4970930;28;20575;-72
2024/01/20 02:42:15;;;;;;;23.73;8.52;;;;;;;;;;4966957;28;20085;-71
2024/01/20 02:44:41;;;;;;;29.58;9.02;;;;;;;;;;4950205;29;20027;-72
2024/01/20 02:47:07;;;;;;;16.52;6.55;;;;;;;;;;4949098;28;20081;-72
2024/01/20 02:49:34;;;;;;;18.15;8.13;;;;;;;;;;4952175;28;20443;-72
2024/01/20 02:51:59;;;;;;;24.10;8.75;;;;;;;;;;4950682;28;20038;-71
2024/01/20 02:54:24;;;;;;;21.13;9.00;;;;;;;;;;4961478;28;20039;-72
2024/01/20 02:56:50;;;;;;;22.55;8.52;;;;;;;;;;4949330;28;20039;-72
2024/01/20 02:59:15;;;;;;;18.42;6.75;;;;;;;;;;4949998;28;20043;-72
2024/01/20 03:01:41;;;;;;;31.20;8.35;;;;;;;;;;4949559;28;20567;-72
2024/01/20 03:04:06;;;;;;;28.98;8.98;;;;;;;;;;4949594;28;20047;-72
2024/01/20 03:06:32;;;;;;;21.45;8.70;;;;;;;;;;4955059;28;20126;-72
2024/01/20 03:08:58;;;;;;;22.10;8.30;;;;;;;;;;4978425;28;20021;-72
2024/01/20 03:11:24;;;;;;;19.63;7.03;;;;;;;;;;4968719;28;20027;-72
2024/01/20 03:13:49;;;;;;;20.80;8.73;;;;;;;;;;4984006;28;20045;-72
2024/01/20 03:16:15;;;;;;;23.23;8.60;;;;;;;;;;4985084;28;20239;-72
2024/01/20 03:18:40;;;;;;;24.55;10.07;;;;;;;;;;4974606;28;20420;-72
2024/01/20 03:21:06;;;;;;;19.15;7.75;;;;;;;;;;4969768;28;20109;-71
2024/01/20 03:23:33;;;;;;;27.52;8.73;;;;;;;;;;4983946;28;20029;-72
2024/01/20 03:25:58;;;;;;;18.48;8.82;;;;;;;;;;4967986;28;20034;-72
2024/01/20 03:28:23;;;;;;;23.83;9.27;;;;;;;;;;4967373;28;20035;-72
2024/01/20 03:30:49;;;;;;;21.55;8.70;;;;;;;;;;4970602;28;20050;-72
2024/01/20 03:33:14;;;;;;;21.48;9.23;;;;;;;;;;4983206;28;20061;-71
2024/01/20 03:35:40;;;;;;;25.02;9.35;;;;;;;;;;4963553;28;20758;-72
2024/01/20 03:38:05;;;;;;;25.10;9.63;;;;;;;;;;4966162;28;20452;-72
2024/01/20 03:40:30;;;;;;;23.55;7.68;;;;;;;;;;4965061;28;20043;-72
2024/01/20 03:42:56;;;;;;;21.55;9.07;;;;;;;;;;4967434;28;20114;-72
2024/01/20 03:45:21;;;;;;;23.52;9.50;;;;;;;;;;4966546;28;20031;-72
2024/01/20 03:47:47;;;;;;;18.42;7.68;;;;;;;;;;4966982;28;20029;-71
2024/01/20 03:50:12;;;;;;;18.90;8.77;;;;;;;;;;4967762;28;20038;-72
2024/01/20 03:52:37;;;;;;;24.27;9.07;;;;;;;;;;4967975;28;20748;-71
2024/01/20 03:55:03;;;;;;;28.00;8.85;;;;;;;;;;4956951;28;20051;-72
2024/01/20 03:57:29;;;;;;;17.88;7.22;;;;;;;;;;4947227;28;20040;-72
2024/01/20 03:59:54;;;;;;;25.50;8.55;;;;;;;;;;4948324;28;20027;-72
2024/01/20 04:02:19;;;;;;;24.15;8.10;;;;;;;;;;4948757;28;20023;-71
2024/01/20 04:04:45;;;;;;;24.58;8.90;;;;;;;;;;4948225;28;20035;-71
2024/01/20 04:07:10;;;;;;;23.58;7.78;;;;;;;;;;4965231;28;20045;-71
2024/01/20 04:09:35;;;;;;;24.90;8.13;;;;;;;;;;4976270;28;20060;-72
2024/01/20 04:12:01;;;;;;;29.08;8.63;;;;;;;;;;4968252;28;20159;-71
2024/01/20 04:14:27;;;;;;;26.75;8.20;;;;;;;;;;4966447;28;20015;-72
2024/01/20 04:16:52;;;;;;;26.48;8.38;;;;;;;;;;4965242;28;20047;-71
2024/01/20 04:19:17;;;;;;;26.05;7.72;;;;;;;;;;4966995;28;20170;-71
2024/01/20 04:21:43;;;;;;;21.30;8.52;;;;;;;;;;4967632;28;20099;-72
2024/01/20 04:24:08;;;;;;;17.77;7.45;;;;;;;;;;4962149;28;20023;-72
2024/01/20 04:26:34;;;;;;;26.77;9.80;;;;;;;;;;4996011;28;20031;-71
2024/01/20 04:29:00;;;;;;;23.48;8.43;;;;;;;;;;4967719;28;20422;-71
2024/01/20 04:31:25;;;;;;;25.13;7.53;;;;;;;;;;4967284;28;20039;-71
2024/01/20 04:33:53;;;;;;;17.88;7.25;;;;;;;;;;4967086;28;20123;-71
2024/01/20 04:36:19;;;;;;;23.00;8.10;;;;;;;;;;4970491;28;20026;-71
2024/01/20 04:38:44;;;;;;;20.55;8.23;;;;;;;;;;4973205;28;20045;-71
2024/01/20 04:41:10;;;;;;;21.50;7.85;;;;;;;;;;4980701;28;20068;-71
2024/01/20 04:43:35;;;;;;;22.15;7.50;;;;;;;;;;4986459;28;20042;-71
2024/01/20 04:46:01;;;;;;;17.30;6.43;;;;;;;;;;4984940;28;20108;-71
2024/01/20 04:48:26;;;;;;;19.15;8.40;;;;;;;;;;4985055;28;20122;-71
2024/01/20 04:50:52;;;;;;;9.88;5.45;;;;;;;;;;4986546;28;20837;-71
2024/01/20 04:53:17;;;;;;;18.40;7.30;;;;;;;;;;4982816;28;20591;-71
2024/01/20 04:55:43;;;;;;;19.25;7.43;;;;;;;;;;4962439;28;20467;-71
2024/01/20 04:58:08;;;;;;;23.42;7.68;;;;;;;;;;4966392;28;20038;-70
2024/01/20 05:00:35;;;;;;;18.67;7.43;;;;;;;;;;4962678;28;20112;-71
2024/01/20 05:03:00;;;;;;;19.85;7.97;;;;;;;;;;4946604;28;20027;-71
2024/01/20 05:05:26;;;;;;;20.98;8.40;;;;;;;;;;4947780;28;20078;-71
2024/01/20 05:07:51;;;;;;;19.58;7.40;;;;;;;;;;4973993;28;20750;-71
2024/01/20 05:10:17;;;;;;;20.67;8.35;;;;;;;;;;4962539;28;20554;-71
2024/01/20 05:12:42;;;;;;;21.08;8.07;;;;;;;;;;4965193;28;20608;-71
2024/01/20 05:15:11;;;;;;;16.35;7.05;;;;;;;;;;4966051;28;20085;-71
2024/01/20 05:17:37;;;;;;;15.43;7.05;;;;;;;;;;4965467;28;20030;-71
2024/01/20 05:20:03;;;;;;;17.67;7.75;;;;;;;;;;4966374;28;20085;-71
2024/01/20 05:22:28;;;;;;;26.10;9.05;;;;;;;;;;4965997;28;20038;-71
2024/01/20 05:24:54;;;;;;;23.27;7.95;;;;;;;;;;4954085;28;20604;-71
2024/01/20 05:27:19;;;;;;;21.77;7.78;;;;;;;;;;4954505;28;20649;-72
2024/01/20 05:29:44;;;;;;;23.05;8.15;;;;;;;;;;4987386;28;20023;-72
2024/01/20 05:32:09;;;;;;;29.42;9.40;;;;;;;;;;4975039;28;20074;-72
2024/01/20 05:34:35;;;;;;;27.35;9.00;;;;;;;;;;4953101;28;20044;-72
2024/01/20 05:37:00;;;;;;;14.38;6.22;;;;;;;;;;4970790;28;20113;-71
2024/01/20 05:39:25;;;;;;;14.85;6.10;;;;;;;;;;4967221;28;20047;-71
2024/01/20 05:41:51;;;;;;;13.13;4.85;;;;;;;;;;4964682;28;20027;-72
2024/01/20 05:44:16;;;;;;;9.68;4.80;;;;;;;;;;4985336;28;20422;-72
2024/01/20 05:46:41;;;;;;;19.77;7.57;;;;;;;;;;4984909;28;20034;-72
2024/01/20 05:49:07;;;;;;;16.35;6.20;;;;;;;;;;4985165;28;20046;-71
2024/01/20 05:51:33;;;;;;;26.20;8.88;;;;;;;;;;4980577;28;20035;-72
2024/01/20 05:53:58;;;;;;;22.08;8.38;;;;;;;;;;4964543;28;20050;-72
2024/01/20 05:56:24;;;;;;;16.35;6.80;;;;;;;;;;4946154;28;20031;-72
2024/01/20 05:58:49;;;;;;;22.40;8.48;;;;;;;;;;4946137;28;20605;-72
2024/01/20 06:01:16;;;;;;;25.08;7.97;;;;;;;;;;4945976;28;20042;-72
2024/01/20 06:03:41;;;;;;;13.27;5.95;;;;;;;;;;4945130;28;20039;-72
2024/01/20 06:06:06;;;;;;;22.92;8.20;;;;;;;;;;4947826;28;20457;-72
2024/01/20 06:08:32;;;;;;;16.35;7.57;;;;;;;;;;4983332;28;20543;-72
2024/01/20 06:10:57;;;;;;;27.67;9.50;;;;;;;;;;4971045;28;20042;-72
2024/01/20 06:13:23;;;;;;;19.67;8.13;;;;;;;;;;4987137;28;20035;-71
2024/01/20 06:15:48;;;;;;;26.15;9.05;;;;;;;;;;4985431;28;20053;-72
2024/01/20 06:18:14;;;;;;;16.08;6.43;;;;;;;;;;4986465;28;20043;-71
2024/01/20 06:20:39;;;;;;;19.92;7.35;;;;;;;;;;4988277;28;20022;-71
2024/01/20 06:23:05;;;;;;;26.15;8.02;;;;;;;;;;4986914;28;20039;-72
2024/01/20 06:25:30;;;;;;;19.60;7.38;;;;;;;;;;4978703;28;20070;-72
2024/01/20 06:27:55;;;;;;;16.73;7.57;;;;;;;;;;4962500;28;20036;-70
2024/01/20 06:30:21;;;;;;;21.75;8.20;;;;;;;;;;4949813;28;20094;-71
2024/01/20 06:32:46;;;;;;;18.08;7.30;;;;;;;;;;4949943;29;20046;-72
2024/01/20 06:35:11;;;;;;;16.52;6.82;;;;;;;;;;4955218;28;20042;-72
2024/01/20 06:37:37;;;;;;;29.50;8.70;;;;;;;;;;4975533;28;20096;-72
2024/01/20 06:40:03;;;;;;;52.28;18.80;;;;;;;;;;4980105;28;20061;-72
2024/01/20 06:42:28;;;;;;;22.75;8.18;;;;;;;;;;4982452;28;20035;-72
2024/01/20 06:44:54;;;;;;;20.17;8.65;;;;;;;;;;4964085;28;20026;-72
2024/01/20 06:47:19;;;;;;;27.45;8.38;;;;;;;;;;4968444;28;20529;-72
2024/01/20 06:49:49;;;;;;;20.65;7.57;;;;;;;;;;4966730;28;20035;-72
2024/01/20 06:52:15;;;;;;;31.83;13.10;;;;;;;;;;4966686;28;20039;-72
2024/01/20 06:54:41;;;;;;;23.58;8.85;;;;;;;;;;4964273;28;20053;-72
2024/01/20 06:57:06;;;;;;;22.30;7.32;;;;;;;;;;4968184;28;20030;-71
2024/01/20 06:59:31;;;;;;;18.83;7.40;;;;;;;;;;4965569;28;20027;-71
2024/01/20 07:01:57;;;;;;;24.08;8.30;;;;;;;;;;4961615;28;20039;-72
2024/01/20 07:04:22;;;;;;;12.02;4.95;;;;;;;;;;4964136;28;20034;-71
2024/01/20 07:06:47;;;;;;;18.17;7.75;;;;;;;;;;4962792;28;20034;-72
2024/01/20 07:09:13;;;;;;;18.17;6.60;;;;;;;;;;4964040;28;20510;-72
2024/01/20 07:11:39;;;;;;;11.65;4.80;;;;;;;;;;4967851;28;20523;-71
2024/01/20 07:14:05;;;;;;;30.35;7.05;;;;;;;;;;4965952;28;20039;-71
2024/01/20 07:16:30;;;;;;;14.13;6.18;;;;;;;;;;4967808;28;20045;-71
2024/01/20 07:18:56;;;;;;;18.70;7.20;;;;;;;;;;4966802;28;20065;-71
2024/01/20 07:21:21;;;;;;;13.07;4.10;;;;;;;;;;4966679;28;20041;-71
2024/01/20 07:23:47;;;;;;;10.00;4.07;;;;;;;;;;4971667;28;20023;-72
2024/01/20 07:26:12;;;;;;;7.95;3.42;;;;;;;;;;4985370;28;20448;-71
2024/01/20 07:28:38;;;;;;;12.73;5.03;;;;;;;;;;4989233;28;20042;-71
2024/01/20 07:31:03;;;;;;;21.48;7.35;;;;;;;;;;4983643;28;20031;-71
2024/01/20 07:33:29;;;;;;;16.10;6.85;;;;;;;;;;4985459;28;20034;-71
2024/01/20 07:35:54;;;;;;;17.45;8.10;;;;;;;;;;4986471;28;20034;-71
2024/01/20 07:38:20;;;;;;;9.65;4.32;;;;;;;;;;4983101;28;20034;-71
2024/01/20 07:40:45;;;;;;;12.88;5.35;;;;;;;;;;4982282;28;20062;-71
2024/01/20 07:43:11;;;;;;;12.70;5.15;;;;;;;;;;4985520;28;20038;-70
2024/01/20 07:45:39;;;;;;;15.05;7.00;;;;;;;;;;4985307;28;20042;-71
2024/01/20 07:48:05;;;;;;;8.48;3.97;;;;;;;;;;4983465;28;20022;-71
2024/01/20 07:50:30;;;;;;;17.33;6.85;;;;;;;;;;4964260;28;20027;-71
2024/01/20 07:52:55;;;;;;;25.45;8.73;;;;;;;;;;4965599;28;20034;-71
2024/01/20 07:55:21;;;;;;;21.75;8.32;;;;;;;;;;4975762;28;20529;-70
2024/01/20 07:57:47;;;;;;;18.38;7.22;;;;;;;;;;4978028;28;20125;-72
2024/01/20 08:00:12;;;;;;;18.63;6.90;;;;;;;;;;4965213;28;20042;-71
2024/01/20 08:02:39;;;;;;;22.02;8.20;;;;;;;;;;4966371;28;20046;-70
2024/01/20 08:05:05;;;;;;;17.45;7.47;;;;;;;;;;4962809;28;20065;-70
2024/01/20 08:07:31;;;;;;;17.85;7.43;;;;;;;;;;4972105;28;20027;-71
2024/01/20 08:09:57;;;;;;;15.48;5.93;;;;;;;;;;4969119;28;20039;-71
2024/01/20 08:12:22;;;;;;;9.05;5.68;;;;;;;;;;4975655;28;20057;-70
2024/01/20 08:14:48;;;;;;;13.93;5.60;;;;;;;;;;4985391;28;20026;-72
2024/01/20 08:17:13;;;;;;;15.73;5.85;;;;;;;;;;4986532;28;20042;-71
2024/01/20 08:19:39;;;;;;;11.27;5.90;;;;;;;;;;4985235;28;20053;-71
2024/01/20 08:22:06;;;;;;;19.60;7.60;;;;;;;;;;4995847;28;20069;-71
2024/01/20 08:24:32;;;;;;;19.73;7.65;;;;;;;;;;4996512;28;20138;-72
2024/01/20 08:26:57;;;;;;;19.13;6.78;;;;;;;;;;4982453;28;20029;-71
2024/01/20 08:29:23;;;;;;;17.50;7.65;;;;;;;;;;4980102;28;20078;-71
2024/01/20 08:31:49;;;;;;;15.75;5.55;;;;;;;;;;4965953;28;20588;-71
2024/01/20 08:34:14;;;;;;;16.58;7.90;;;;;;;;;;4964869;28;20030;-71
2024/01/20 08:36:39;;;;;;;14.15;6.47;;;;;;;;;;4962034;28;20516;-70
2024/01/20 08:39:06;;;;;;;9.05;4.25;;;;;;;;;;4958157;28;20022;-70
2024/01/20 08:41:31;;;;;;;11.52;5.50;;;;;;;;;;4959450;28;20033;-70
2024/01/20 08:43:57;;;;;;;9.50;4.57;;;;;;;;;;4961965;28;20039;-70
2024/01/20 08:46:22;;;;;;;15.52;5.78;;;;;;;;;;4957254;28;20038;-70
2024/01/20 08:48:47;;;;;;;17.08;5.80;;;;;;;;;;4964792;28;20042;-71
2024/01/20 08:51:13;;;;;;;9.30;3.38;;;;;;;;;;4970744;28;20033;-70
2024/01/20 08:53:39;;;;;;;9.52;4.72;;;;;;;;;;4954643;28;20138;-72
2024/01/20 08:56:05;;;;;;;11.73;6.10;;;;;;;;;;4976085;28;20102;-71
2024/01/20 08:58:30;;;;;;;12.32;6.13;;;;;;;;;;4966393;28;20046;-71
2024/01/20 09:00:56;;;;;;;5.75;3.17;;;;;;;;;;4963010;28;20038;-71
2024/01/20 09:03:21;;;;;;;13.88;6.03;;;;;;;;;;4972881;28;20159;-71
2024/01/20 09:05:47;;;;;;;12.77;6.10;;;;;;;;;;4962883;28;20113;-71
2024/01/20 09:08:13;;;;;;;7.97;3.63;;;;;;;;;;4959862;28;20030;-71
2024/01/20 09:10:39;;;;;;;8.48;3.75;;;;;;;;;;4959160;28;20042;-71
2024/01/20 09:13:04;;;;;;;16.13;6.80;;;;;;;;;;4960179;28;20043;-70
2024/01/20 09:15:30;;;;;;;12.77;6.25;;;;;;;;;;4957716;28;20197;-71
2024/01/20 09:17:55;;;;;;;20.83;7.60;;;;;;;;;;4958869;28;20030;-70
2024/01/20 09:20:21;;;;;;;14.70;6.50;;;;;;;;;;4976622;28;20033;-71
2024/01/20 09:22:46;;;;;;;25.48;8.30;;;;;;;;;;4962575;28;20082;-72
2024/01/20 09:25:12;;;;;;;19.25;7.43;;;;;;;;;;4964419;28;20110;-70
2024/01/20 09:27:37;;;;;;;19.65;7.38;;;;;;;;;;4973735;28;20043;-74
2024/01/20 09:30:04;;;;;;;19.15;7.40;;;;;;;;;;4950132;28;20377;-72
2024/01/20 09:32:33;;;;;;;9.10;3.67;;;;;;;;;;4978114;28;20174;-72
2024/01/20 09:34:59;;;;;;;18.20;7.38;;;;;;;;;;4982973;28;20055;-72
2024/01/20 09:37:24;;;;;;;11.43;5.25;;;;;;;;;;4966124;28;20046;-73
2024/01/20 09:39:50;;;;;;;10.90;4.80;;;;;;;;;;4966493;28;20042;-73
2024/01/20 09:42:16;;;;;;;12.82;5.50;;;;;;;;;;4978361;28;20034;-73
2024/01/20 09:44:41;;;;;;;19.08;7.35;;;;;;;;;;4960698;28;20031;-73
2024/01/20 09:47:11;;;;;;;12.43;5.45;;;;;;;;;;4966616;28;20738;-73
2024/01/20 09:49:39;;;;;;;20.30;7.72;;;;;;;;;;4965488;28;20037;-73
2024/01/20 09:52:12;;;;;;;16.85;5.18;;;;;;;;;;4965116;28;20042;-73
2024/01/20 09:54:56;;;;;;;15.35;6.78;;;;;;;;;;4971170;28;20049;-73
2024/01/20 09:57:23;;;;;;;15.65;6.25;;;;;;;;;;4982103;28;20038;-73
2024/01/20 09:59:51;;;;;;;16.23;6.03;;;;;;;;;;4966931;28;20037;-73
2024/01/20 10:02:19;;;;;;;11.75;5.00;;;;;;;;;;4966052;28;20038;-73
2024/01/20 10:04:48;;;;;;;15.80;6.10;;;;;;;;;;4966583;28;20035;-73
2024/01/20 10:07:28;;;;;;;11.98;5.35;;;;;;;;;;4997160;28;20043;-73
2024/01/20 10:09:53;;;;;;;9.20;4.32;;;;;;;;;;4988342;28;20038;-73
2024/01/20 10:12:19;;;;;;;21.42;6.75;;;;;;;;;;4985979;28;20046;-73
2024/01/20 10:14:44;;;;;;;15.70;5.93;;;;;;;;;;4987444;28;20030;-73
2024/01/20 10:17:10;;;;;;;16.48;6.75;;;;;;;;;;4986222;28;20073;-74
2024/01/20 10:19:35;;;;;;;16.58;6.13;;;;;;;;;;4986288;28;20047;-73
2024/01/20 10:22:06;;;;;;;16.17;7.03;;;;;;;;;;4977201;28;20472;-73
2024/01/20 10:24:31;;;;;;;7.13;4.18;;;;;;;;;;4961738;28;20035;-73
2024/01/20 10:26:58;;;;;;;10.57;3.83;;;;;;;;;;4946697;28;20118;-74
2024/01/20 10:29:25;;;;;;;12.13;4.15;;;;;;;;;;4944493;28;20041;-72
2024/01/20 10:31:50;;;;;;;15.75;6.70;;;;;;;;;;4979404;28;20073;-70
2024/01/20 10:34:15;;;;;;;15.32;5.70;;;;;;;;;;4967268;28;20472;-71
2024/01/20 10:36:44;;;;;;;14.75;5.55;;;;;;;;;;4959088;28;20058;-71
2024/01/20 10:39:15;;;;;;;12.15;5.72;;;;;;;;;;4955186;28;20033;-70
2024/01/20 10:41:42;;;;;;;21.17;8.45;;;;;;;;;;4955257;28;20035;-71
2024/01/20 10:44:11;;;;;;;21.33;6.97;;;;;;;;;;4961939;28;20051;-71
2024/01/20 10:46:39;;;;;;;16.80;7.22;;;;;;;;;;4959679;28;20042;-71
2024/01/20 10:49:08;;;;;;;29.17;9.05;;;;;;;;;;4974054;28;20041;-71
2024/01/20 10:51:34;;;;;;;21.65;7.82;;;;;;;;;;4984213;28;20181;-71
2024/01/20 10:54:02;;;;;;;28.42;9.05;;;;;;;;;;4985139;28;20057;-70
2024/01/20 10:56:29;;;;;;;21.00;7.03;;;;;;;;;;4970832;28;20062;-69
2024/01/20 10:59:14;;;;;;;18.95;5.72;;;;;;;;;;4969931;28;20261;-70
2024/01/20 11:01:42;;;;;;;19.95;8.15;;;;;;;;;;4970940;28;20104;-69
2024/01/20 11:04:07;;;;;;;16.70;6.65;;;;;;;;;;4951981;28;20035;-71
2024/01/20 11:06:35;;;;;;;33.33;11.98;;;;;;;;;;4953492;28;20040;-70
2024/01/20 11:09:04;;;;;;;19.90;8.75;;;;;;;;;;4984887;28;20070;-70
2024/01/20 11:11:34;;;;;;;25.60;9.05;;;;;;;;;;4955787;28;20065;-69
2024/01/20 11:14:00;;;;;;;15.98;7.05;;;;;;;;;;4947057;28;20039;-71
2024/01/20 11:16:31;;;;;;;15.52;7.75;;;;;;;;;;4948718;28;20118;-71
2024/01/20 11:19:09;;;;;;;17.13;6.85;;;;;;;;;;4967486;28;20133;-71
2024/01/20 11:21:34;;;;;;;15.65;6.40;;;;;;;;;;4967799;28;20035;-71
2024/01/20 11:24:04;;;;;;;21.63;7.38;;;;;;;;;;4966716;28;20042;-70
2024/01/20 11:26:36;;;;;;;16.95;6.93;;;;;;;;;;4968123;28;20044;-70
2024/01/20 11:29:04;;;;;;;15.07;6.50;;;;;;;;;;4965769;28;20113;-71
2024/01/20 11:31:30;;;;;;;18.83;7.35;;;;;;;;;;4977047;28;20081;-71
2024/01/20 11:34:01;;;;;;;17.10;7.25;;;;;;;;;;4981464;28;20508;-71
2024/01/20 11:36:31;;;;;;;16.42;6.22;;;;;;;;;;4978133;28;20041;-71
2024/01/20 11:38:57;;;;;;;22.55;7.35;;;;;;;;;;4968370;28;20037;-71
2024/01/20 11:41:23;;;;;;;20.88;7.25;;;;;;;;;;4966193;28;20033;-71
2024/01/20 11:43:48;;;;;;;19.50;7.13;;;;;;;;;;4963196;28;20039;-71
2024/01/20 11:46:14;;;;;;;16.85;5.47;;;;;;;;;;4962622;28;20121;-71
2024/01/20 11:48:40;;;;;;;20.60;7.88;;;;;;;;;;4963000;28;20649;-70
2024/01/20 11:51:06;;;;;;;20.38;7.97;;;;;;;;;;4970443;28;20031;-71
2024/01/20 11:53:31;;;;;;;18.48;6.82;;;;;;;;;;4983260;28;20034;-71
2024/01/20 11:55:59;;;;;;;14.85;5.57;;;;;;;;;;4958335;28;20458;-70
2024/01/20 11:58:25;;;;;;;22.17;7.20;;;;;;;;;;4957542;28;20047;-70
2024/01/20 12:00:51;;;;;;;15.85;5.50;;;;;;;;;;4962751;28;20039;-69
2024/01/20 12:03:18;;;;;;;18.70;6.65;;;;;;;;;;4969184;28;20034;-71
2024/01/20 12:05:43;;;;;;;18.80;7.47;;;;;;;;;;4966336;28;20030;-71
2024/01/20 12:08:09;;;;;;;18.60;6.30;;;;;;;;;;4976581;28;20428;-70
2024/01/20 12:10:34;;;;;;;21.85;6.95;;;;;;;;;;4968620;28;20110;-71
2024/01/20 12:13:01;;;;;;;22.20;7.30;;;;;;;;;;4972201;28;20409;-70
2024/01/20 12:15:32;;;;;;;20.42;7.25;;;;;;;;;;4978637;28;20101;-71
2024/01/20 12:17:58;;;;;;;16.15;6.60;;;;;;;;;;4982303;28;20033;-71
2024/01/20 12:20:24;;;;;;;15.65;6.60;;;;;;;;;;4967039;28;20031;-72
2024/01/20 12:22:50;;;;;;;19.65;7.28;;;;;;;;;;4962385;28;20034;-71
2024/01/20 12:25:16;;;;;;;19.08;7.28;;;;;;;;;;4958298;28;20512;-71
2024/01/20 12:27:41;;;;;;;16.52;6.30;;;;;;;;;;4963965;28;20064;-72
2024/01/20 12:30:07;;;;;;;16.88;6.20;;;;;;;;;;4966005;28;20027;-71
2024/01/20 12:32:32;;;;;;;18.13;6.72;;;;;;;;;;4966619;28;20027;-71
2024/01/20 12:34:57;;;;;;;18.42;7.68;;;;;;;;;;4964989;28;20049;-71
2024/01/20 12:37:23;;;;;;;16.67;6.53;;;;;;;;;;4971927;28;20517;-71
2024/01/20 12:39:48;;;;;;;17.30;7.88;;;;;;;;;;4959219;28;20032;-71
2024/01/20 12:42:14;;;;;;;19.88;7.07;;;;;;;;;;4947249;28;20522;-71
2024/01/20 12:44:39;;;;;;;16.98;7.10;;;;;;;;;;4964922;28;20030;-71
2024/01/20 12:47:04;;;;;;;19.30;6.80;;;;;;;;;;4946782;28;20050;-71
2024/01/20 12:49:30;;;;;;;25.17;8.60;;;;;;;;;;4944939;28;20540;-71
2024/01/20 12:51:56;;;;;;;16.27;6.63;;;;;;;;;;4947146;28;20102;-71
2024/01/20 12:54:21;;;;;;;15.80;6.88;;;;;;;;;;4965632;28;20188;-71
2024/01/20 12:56:47;;;;;;;21.00;8.25;;;;;;;;;;4964113;28;20027;-70
2024/01/20 12:59:12;;;;;;;14.18;6.32;;;;;;;;;;4965586;28;20046;-70
2024/01/20 13:01:38;;;;;;;17.40;6.72;;;;;;;;;;4963284;28;20126;-71
2024/01/20 13:04:03;;;;;;;21.80;7.47;;;;;;;;;;4965536;28;21022;-71
2024/01/20 13:06:30;;;;;;;19.33;8.13;;;;;;;;;;4966598;28;20058;-71
2024/01/20 13:08:56;;;;;;;16.65;7.18;;;;;;;;;;4973690;28;20055;-71
2024/01/20 13:11:23;;;;;;;18.83;7.35;;;;;;;;;;4948630;28;20031;-71
2024/01/20 13:13:49;;;;;;;26.73;7.88;;;;;;;;;;4946906;28;20516;-69
2024/01/20 13:16:17;;;;;;;20.20;7.03;;;;;;;;;;4967224;28;20099;-72
2024/01/20 13:18:43;;;;;;;20.25;8.50;;;;;;;;;;4970891;28;20043;-70
2024/01/20 13:21:08;;;;;;;21.15;7.88;;;;;;;;;;4963913;28;20029;-72
2024/01/20 13:23:34;;;;;;;19.48;7.82;;;;;;;;;;4965982;28;20034;-71
2024/01/20 13:26:00;;;;;;;20.63;8.15;;;;;;;;;;4979807;28;20466;-72
2024/01/20 13:28:28;;;;;;;20.30;8.02;;;;;;;;;;4984872;28;20303;-72
2024/01/20 13:30:53;;;;;;;21.92;8.02;;;;;;;;;;4981940;28;20042;-74
2024/01/20 13:33:19;;;;;;;24.55;8.85;;;;;;;;;;4966513;28;20031;-70
2024/01/20 13:35:44;;;;;;;30.50;11.52;;;;;;;;;;4970363;28;20519;-70
2024/01/20 13:38:10;;;;;;;25.13;9.07;;;;;;;;;;4974535;28;20050;-72
2024/01/20 13:40:35;;;;;;;19.60;8.30;;;;;;;;;;4966994;28;20039;-72
2024/01/20 13:43:00;;;;;;;18.90;7.38;;;;;;;;;;4955272;28;20047;-73
2024/01/20 13:45:26;;;;;;;20.00;8.27;;;;;;;;;;4946018;28;20461;-70
2024/01/20 13:47:51;;;;;;;22.90;7.63;;;;;;;;;;4946431;28;20401;-72
2024/01/20 13:50:16;;;;;;;39.92;8.35;;;;;;;;;;4945760;28;20469;-72
2024/01/20 13:52:42;;;;;;;20.48;8.07;;;;;;;;;;4946810;28;20042;-71
2024/01/20 13:55:08;;;;;;;23.88;8.90;;;;;;;;;;4958187;28;20035;-72
2024/01/20 13:57:33;;;;;;;20.92;7.90;;;;;;;;;;4965345;28;20039;-71
2024/01/20 13:59:59;;;;;;;19.55;8.30;;;;;;;;;;4961976;28;20023;-72
2024/01/20 14:02:24;;;;;;;23.75;8.80;;;;;;;;;;4964861;28;20109;-71
2024/01/20 14:04:50;;;;;;;21.50;7.15;;;;;;;;;;4963813;28;20038;-71
2024/01/20 14:07:15;;;;;;;24.83;8.60;;;;;;;;;;4971910;28;20495;-73
2024/01/20 14:09:41;;;;;;;22.48;9.13;;;;;;;;;;4962661;28;20564;-72
2024/01/20 14:12:07;;;;;;;22.70;8.55;;;;;;;;;;4945751;28;20027;-73
2024/01/20 14:14:32;;;;;;;24.05;8.57;;;;;;;;;;4945755;28;20046;-73
2024/01/20 14:16:59;;;;;;;16.77;6.85;;;;;;;;;;4944004;28;20043;-72
2024/01/20 14:19:27;;;;;;;24.75;8.38;;;;;;;;;;4943910;28;20086;-71
2024/01/20 14:21:52;;;;;;;20.92;7.78;;;;;;;;;;4945176;28;20138;-73
2024/01/20 14:24:18;;;;;;;17.98;7.85;;;;;;;;;;4958883;28;20860;-73